Waterford, Connecticut
Current Conditions -  °F | °C
As of 4:56 AM on Friday 31 Oct 2014 (Local Time) from KGON Reporting Station
Clear Clear  
Wind Chill: 34°   Ceiling: Unl
Heat Index: 40°   Visibility: 10mi
Dew Point: 36°   Wind: 9mph
Humidity: 86%   Direction: 360°N
Pressure: 29.99"   Gusts: NA
Location:  41.33°N, 72.12°W
Report Text: KGON 310856Z AUTO 36008KT 10SM CLR 04/02 A2999 RMK AO2 SLP156 T00440022 57000 TSNO
Loading
Personal Weather Stations






























Interactive Weather Map
Tropical Storm Tracking
New forecast layout! Learn more

10-Day Weather Forecast

Advertisements
Track Severe Weather on mobile